sensor_id;sensor_type;location;lat;lon;timestamp;pressure;altitude;pressure_sealevel;temperature;humidity
82621;BME280;72291;55.002;-1.592;2024-01-30T00:01:16;101092.69;;;2.67;83.10
82621;BME280;72291;55.002;-1.592;2024-01-30T00:03:40;101108.30;;;2.47;83.74
82621;BME280;72291;55.002;-1.592;2024-01-30T00:06:28;101106.11;;;2.82;82.48
82621;BME280;72291;55.002;-1.592;2024-01-30T00:08:30;101108.67;;;2.22;83.91
82621;BME280;72291;55.002;-1.592;2024-01-30T00:10:55;101104.06;;;2.59;83.91
82621;BME280;72291;55.002;-1.592;2024-01-30T00:13:21;101091.67;;;2.59;82.15
82621;BME280;72291;55.002;-1.592;2024-01-30T00:15:51;101089.84;;;3.06;81.32
82621;BME280;72291;55.002;-1.592;2024-01-30T00:20:38;101095.40;;;2.73;82.18
82621;BME280;72291;55.002;-1.592;2024-01-30T00:23:06;101100.98;;;2.55;84.24
82621;BME280;72291;55.002;-1.592;2024-01-30T00:25:32;101105.53;;;2.35;83.48
82621;BME280;72291;55.002;-1.592;2024-01-30T00:27:51;101103.20;;;2.74;81.40
82621;BME280;72291;55.002;-1.592;2024-01-30T00:30:18;101097.97;;;3.45;79.76
82621;BME280;72291;55.002;-1.592;2024-01-30T00:32:42;101093.04;;;2.61;81.82
82621;BME280;72291;55.002;-1.592;2024-01-30T00:35:13;101099.36;;;2.48;82.83
82621;BME280;72291;55.002;-1.592;2024-01-30T00:42:29;101089.05;;;2.83;80.55
82621;BME280;72291;55.002;-1.592;2024-01-30T01:01:51;101092.88;;;1.45;84.33
82621;BME280;72291;55.002;-1.592;2024-01-30T01:04:16;101093.73;;;2.14;84.60
82621;BME280;72291;55.002;-1.592;2024-01-30T01:11:25;101105.08;;;1.66;83.71
82621;BME280;72291;55.002;-1.592;2024-01-30T01:13:52;101095.67;;;3.08;78.20
82621;BME280;72291;55.002;-1.592;2024-01-30T01:16:16;101097.16;;;2.98;80.38
82621;BME280;72291;55.002;-1.592;2024-01-30T01:18:41;101094.71;;;2.95;79.51
82621;BME280;72291;55.002;-1.592;2024-01-30T01:21:07;101090.85;;;2.52;81.08
82621;BME280;72291;55.002;-1.592;2024-01-30T01:23:31;101093.28;;;3.16;79.39
82621;BME280;72291;55.002;-1.592;2024-01-30T01:25:58;101094.28;;;3.90;75.92
82621;BME280;72291;55.002;-1.592;2024-01-30T01:28:22;101093.23;;;3.39;76.90
82621;BME280;72291;55.002;-1.592;2024-01-30T01:30:48;101093.64;;;2.65;79.69
82621;BME280;72291;55.002;-1.592;2024-01-30T01:33:13;101094.58;;;3.12;81.08
82621;BME280;72291;55.002;-1.592;2024-01-30T01:35:38;101097.63;;;2.92;79.27
82621;BME280;72291;55.002;-1.592;2024-01-30T01:38:09;101093.07;;;3.06;79.61
82621;BME280;72291;55.002;-1.592;2024-01-30T01:40:29;101100.25;;;2.48;81.22
82621;BME280;72291;55.002;-1.592;2024-01-30T01:42:55;101095.64;;;3.17;77.24
82621;BME280;72291;55.002;-1.592;2024-01-30T01:45:19;101108.58;;;2.65;79.79
82621;BME280;72291;55.002;-1.592;2024-01-30T01:47:44;101105.21;;;3.36;76.42
82621;BME280;72291;55.002;-1.592;2024-01-30T01:50:10;101099.54;;;2.82;79.46
82621;BME280;72291;55.002;-1.592;2024-01-30T01:52:35;101109.27;;;2.68;80.30
82621;BME280;72291;55.002;-1.592;2024-01-30T01:55:00;101102.20;;;3.11;79.89
82621;BME280;72291;55.002;-1.592;2024-01-30T01:57:25;101104.70;;;3.20;77.53
82621;BME280;72291;55.002;-1.592;2024-01-30T01:59:50;101106.51;;;3.15;76.84
82621;BME280;72291;55.002;-1.592;2024-01-30T02:02:17;101107.25;;;3.64;76.00
82621;BME280;72291;55.002;-1.592;2024-01-30T02:04:41;101110.29;;;3.50;76.68
82621;BME280;72291;55.002;-1.592;2024-01-30T02:07:06;101111.30;;;3.63;75.15
82621;BME280;72291;55.002;-1.592;2024-01-30T02:09:31;101110.54;;;3.44;76.54
82621;BME280;72291;55.002;-1.592;2024-01-30T02:11:56;101110.18;;;2.98;79.73
82621;BME280;72291;55.002;-1.592;2024-01-30T02:14:22;101108.15;;;3.23;79.74
82621;BME280;72291;55.002;-1.592;2024-01-30T02:16:51;101105.55;;;2.90;78.61
82621;BME280;72291;55.002;-1.592;2024-01-30T02:19:12;101102.89;;;3.30;78.76
82621;BME280;72291;55.002;-1.592;2024-01-30T02:21:37;101101.52;;;2.31;80.69
82621;BME280;72291;55.002;-1.592;2024-01-30T02:24:03;101093.48;;;3.06;78.36
82621;BME280;72291;55.002;-1.592;2024-01-30T02:26:33;101099.85;;;2.92;79.41
82621;BME280;72291;55.002;-1.592;2024-01-30T02:28:52;101103.46;;;2.01;81.70
82621;BME280;72291;55.002;-1.592;2024-01-30T02:31:17;101091.61;;;3.17;78.43
82621;BME280;72291;55.002;-1.592;2024-01-30T02:33:43;101096.60;;;2.70;80.12
82621;BME280;72291;55.002;-1.592;2024-01-30T02:36:08;101090.70;;;2.46;80.96
82621;BME280;72291;55.002;-1.592;2024-01-30T02:38:34;101091.29;;;3.43;76.84
82621;BME280;72291;55.002;-1.592;2024-01-30T02:40:58;101084.37;;;3.94;74.70
82621;BME280;72291;55.002;-1.592;2024-01-30T02:43:23;101086.46;;;2.71;77.57
82621;BME280;72291;55.002;-1.592;2024-01-30T02:45:48;101087.37;;;3.47;76.00
82621;BME280;72291;55.002;-1.592;2024-01-30T02:48:14;101092.68;;;3.65;74.70
82621;BME280;72291;55.002;-1.592;2024-01-30T02:50:39;101105.45;;;2.96;76.87
82621;BME280;72291;55.002;-1.592;2024-01-30T02:53:04;101105.71;;;3.20;76.12
82621;BME280;72291;55.002;-1.592;2024-01-30T02:55:29;101099.12;;;4.14;72.51
82621;BME280;72291;55.002;-1.592;2024-01-30T02:57:54;101105.37;;;4.67;71.89
82621;BME280;72291;55.002;-1.592;2024-01-30T03:00:20;101104.84;;;3.96;75.71
82621;BME280;72291;55.002;-1.592;2024-01-30T03:02:46;101109.62;;;2.90;78.69
82621;BME280;72291;55.002;-1.592;2024-01-30T03:05:10;101116.52;;;2.91;78.75
82621;BME280;72291;55.002;-1.592;2024-01-30T03:07:35;101119.20;;;2.00;81.80
82621;BME280;72291;55.002;-1.592;2024-01-30T03:10:00;101118.97;;;2.54;81.64
82621;BME280;72291;55.002;-1.592;2024-01-30T03:12:25;101112.37;;;2.70;79.12
82621;BME280;72291;55.002;-1.592;2024-01-30T03:14:51;101111.05;;;2.43;82.42
82621;BME280;72291;55.002;-1.592;2024-01-30T03:17:16;101113.77;;;2.19;83.64
82621;BME280;72291;55.002;-1.592;2024-01-30T03:19:41;101103.75;;;2.99;79.58
82621;BME280;72291;55.002;-1.592;2024-01-30T03:22:06;101109.93;;;2.53;79.61
82621;BME280;72291;55.002;-1.592;2024-01-30T03:24:31;101106.13;;;2.69;79.36
82621;BME280;72291;55.002;-1.592;2024-01-30T03:26:57;101108.16;;;2.69;80.33
82621;BME280;72291;55.002;-1.592;2024-01-30T03:29:24;101107.91;;;3.15;79.90
82621;BME280;72291;55.002;-1.592;2024-01-30T03:31:47;101118.35;;;2.81;79.38
82621;BME280;72291;55.002;-1.592;2024-01-30T03:34:12;101130.18;;;2.35;81.91
82621;BME280;72291;55.002;-1.592;2024-01-30T03:36:38;101131.70;;;2.55;80.19
82621;BME280;72291;55.002;-1.592;2024-01-30T03:39:02;101128.11;;;3.03;79.50
82621;BME280;72291;55.002;-1.592;2024-01-30T03:46:18;101120.96;;;3.10;78.24
82621;BME280;72291;55.002;-1.592;2024-01-30T03:48:44;101130.08;;;2.66;78.52
82621;BME280;72291;55.002;-1.592;2024-01-30T03:51:09;101120.04;;;2.92;78.48
82621;BME280;72291;55.002;-1.592;2024-01-30T03:53:33;101125.67;;;2.88;77.70
82621;BME280;72291;55.002;-1.592;2024-01-30T03:55:58;101122.62;;;2.91;77.68
82621;BME280;72291;55.002;-1.592;2024-01-30T03:58:28;101127.32;;;3.26;77.03
82621;BME280;72291;55.002;-1.592;2024-01-30T04:00:49;101136.40;;;3.03;76.25
82621;BME280;72291;55.002;-1.592;2024-01-30T04:03:16;101142.95;;;2.20;79.34
82621;BME280;72291;55.002;-1.592;2024-01-30T04:05:39;101134.09;;;2.61;78.48
82621;BME280;72291;55.002;-1.592;2024-01-30T04:08:10;101142.67;;;2.82;79.19
82621;BME280;72291;55.002;-1.592;2024-01-30T04:10:30;101137.99;;;2.45;78.35
82621;BME280;72291;55.002;-1.592;2024-01-30T04:12:55;101139.52;;;3.09;76.69
82621;BME280;72291;55.002;-1.592;2024-01-30T04:15:20;101144.74;;;2.70;78.25
82621;BME280;72291;55.002;-1.592;2024-01-30T04:17:45;101148.82;;;3.35;76.77
82621;BME280;72291;55.002;-1.592;2024-01-30T04:20:14;101157.61;;;2.80;77.78
82621;BME280;72291;55.002;-1.592;2024-01-30T04:22:35;101153.49;;;3.21;77.64
82621;BME280;72291;55.002;-1.592;2024-01-30T04:25:01;101165.38;;;2.45;77.62
82621;BME280;72291;55.002;-1.592;2024-01-30T04:27:26;101163.15;;;3.03;78.27
82621;BME280;72291;55.002;-1.592;2024-01-30T04:29:51;101169.64;;;2.61;77.67
82621;BME280;72291;55.002;-1.592;2024-01-30T04:32:17;101175.55;;;1.68;80.38
82621;BME280;72291;55.002;-1.592;2024-01-30T04:34:46;101178.20;;;2.70;77.28
82621;BME280;72291;55.002;-1.592;2024-01-30T04:37:07;101188.29;;;2.67;78.31
82621;BME280;72291;55.002;-1.592;2024-01-30T04:39:33;101195.14;;;1.50;82.37
82621;BME280;72291;55.002;-1.592;2024-01-30T04:41:58;101200.68;;;1.80;82.25
82621;BME280;72291;55.002;-1.592;2024-01-30T04:44:23;101202.82;;;1.85;80.90
82621;BME280;72291;55.002;-1.592;2024-01-30T04:46:48;101201.34;;;1.62;84.18
82621;BME280;72291;55.002;-1.592;2024-01-30T04:49:14;101204.70;;;1.64;81.76
82621;BME280;72291;55.002;-1.592;2024-01-30T04:51:41;101209.21;;;1.38;83.59
82621;BME280;72291;55.002;-1.592;2024-01-30T04:54:04;101215.85;;;2.21;80.67
82621;BME280;72291;55.002;-1.592;2024-01-30T04:56:29;101219.25;;;1.90;82.32
82621;BME280;72291;55.002;-1.592;2024-01-30T04:58:54;101224.67;;;2.54;79.63
82621;BME280;72291;55.002;-1.592;2024-01-30T05:01:19;101222.41;;;1.53;82.27
82621;BME280;72291;55.002;-1.592;2024-01-30T05:03:45;101226.90;;;1.46;82.75
82621;BME280;72291;55.002;-1.592;2024-01-30T05:06:10;101229.24;;;3.28;76.75
82621;BME280;72291;55.002;-1.592;2024-01-30T05:08:35;101236.87;;;2.62;77.96
82621;BME280;72291;55.002;-1.592;2024-01-30T05:11:00;101241.24;;;2.03;78.63
82621;BME280;72291;55.002;-1.592;2024-01-30T05:13:25;101247.03;;;2.25;78.14
82621;BME280;72291;55.002;-1.592;2024-01-30T05:15:51;101252.15;;;1.51;81.23
82621;BME280;72291;55.002;-1.592;2024-01-30T05:18:15;101256.86;;;1.27;81.48
82621;BME280;72291;55.002;-1.592;2024-01-30T05:20:41;101262.73;;;1.95;79.07
82621;BME280;72291;55.002;-1.592;2024-01-30T05:23:06;101268.96;;;1.91;78.33
82621;BME280;72291;55.002;-1.592;2024-01-30T05:25:31;101271.10;;;1.29;82.05
82621;BME280;72291;55.002;-1.592;2024-01-30T05:27:56;101280.73;;;1.31;82.19
82621;BME280;72291;55.002;-1.592;2024-01-30T05:30:22;101285.49;;;1.42;83.06
82621;BME280;72291;55.002;-1.592;2024-01-30T05:32:47;101292.71;;;1.83;80.81
82621;BME280;72291;55.002;-1.592;2024-01-30T05:35:12;101295.59;;;1.32;81.11
82621;BME280;72291;55.002;-1.592;2024-01-30T05:37:37;101308.21;;;1.22;81.43
82621;BME280;72291;55.002;-1.592;2024-01-30T05:40:04;101306.76;;;1.53;80.58
82621;BME280;72291;55.002;-1.592;2024-01-30T05:42:27;101307.23;;;1.82;79.54
82621;BME280;72291;55.002;-1.592;2024-01-30T05:44:53;101306.79;;;0.97;81.36
82621;BME280;72291;55.002;-1.592;2024-01-30T05:47:18;101307.76;;;1.59;81.07
82621;BME280;72291;55.002;-1.592;2024-01-30T05:49:43;101312.54;;;1.58;79.59
82621;BME280;72291;55.002;-1.592;2024-01-30T05:52:08;101310.26;;;1.75;80.41
82621;BME280;72291;55.002;-1.592;2024-01-30T05:54:33;101316.42;;;1.77;78.66
82621;BME280;72291;55.002;-1.592;2024-01-30T05:56:59;101320.53;;;2.13;78.00
82621;BME280;72291;55.002;-1.592;2024-01-30T05:59:24;101323.17;;;2.23;76.84
82621;BME280;72291;55.002;-1.592;2024-01-30T06:01:49;101328.66;;;2.29;74.81
82621;BME280;72291;55.002;-1.592;2024-01-30T06:04:15;101332.36;;;3.19;72.48
82621;BME280;72291;55.002;-1.592;2024-01-30T06:06:39;101340.75;;;3.39;71.68
82621;BME280;72291;55.002;-1.592;2024-01-30T06:09:05;101343.75;;;2.68;72.06
82621;BME280;72291;55.002;-1.592;2024-01-30T06:11:30;101342.40;;;2.08;74.45
82621;BME280;72291;55.002;-1.592;2024-01-30T06:13:55;101347.34;;;1.22;78.80
82621;BME280;72291;55.002;-1.592;2024-01-30T06:18:46;101350.52;;;1.77;75.07
82621;BME280;72291;55.002;-1.592;2024-01-30T06:40:33;101365.78;;;1.65;76.38
82621;BME280;72291;55.002;-1.592;2024-01-30T06:50:22;101384.23;;;1.43;78.77
82621;BME280;72291;55.002;-1.592;2024-01-30T06:52:38;101383.58;;;2.55;75.04
82621;BME280;72291;55.002;-1.592;2024-01-30T06:55:04;101390.26;;;2.21;75.31
82621;BME280;72291;55.002;-1.592;2024-01-30T06:57:28;101394.83;;;2.27;74.17
82621;BME280;72291;55.002;-1.592;2024-01-30T06:59:54;101402.47;;;2.47;72.79
82621;BME280;72291;55.002;-1.592;2024-01-30T07:02:19;101410.21;;;2.56;73.60
82621;BME280;72291;55.002;-1.592;2024-01-30T07:04:44;101422.12;;;2.57;74.76
82621;BME280;72291;55.002;-1.592;2024-01-30T07:07:09;101424.77;;;2.47;73.49
82621;BME280;72291;55.002;-1.592;2024-01-30T07:09:34;101435.05;;;2.48;74.29
82621;BME280;72291;55.002;-1.592;2024-01-30T07:12:00;101437.99;;;2.01;76.43
82621;BME280;72291;55.002;-1.592;2024-01-30T07:14:25;101442.00;;;2.09;77.20
82621;BME280;72291;55.002;-1.592;2024-01-30T07:16:51;101441.69;;;1.87;77.45
82621;BME280;72291;55.002;-1.592;2024-01-30T07:19:15;101450.87;;;1.97;79.01
82621;BME280;72291;55.002;-1.592;2024-01-30T07:21:40;101457.69;;;2.02;78.14
82621;BME280;72291;55.002;-1.592;2024-01-30T07:24:06;101457.11;;;2.26;76.63
82621;BME280;72291;55.002;-1.592;2024-01-30T07:26:31;101465.83;;;2.52;76.76
82621;BME280;72291;55.002;-1.592;2024-01-30T07:28:57;101464.54;;;1.92;78.75
82621;BME280;72291;55.002;-1.592;2024-01-30T07:31:21;101466.95;;;1.54;79.25
82621;BME280;72291;55.002;-1.592;2024-01-30T07:33:46;101462.90;;;2.33;77.13
82621;BME280;72291;55.002;-1.592;2024-01-30T07:36:12;101462.47;;;2.80;74.77
82621;BME280;72291;55.002;-1.592;2024-01-30T07:38:37;101466.62;;;2.94;73.69
82621;BME280;72291;55.002;-1.592;2024-01-30T07:41:02;101475.79;;;2.45;74.53
82621;BME280;72291;55.002;-1.592;2024-01-30T07:43:27;101486.26;;;1.82;77.24
82621;BME280;72291;55.002;-1.592;2024-01-30T07:45:52;101486.44;;;2.75;75.75
82621;BME280;72291;55.002;-1.592;2024-01-30T07:48:17;101498.91;;;2.42;76.77
82621;BME280;72291;55.002;-1.592;2024-01-30T07:50:43;101506.66;;;2.47;77.14
82621;BME280;72291;55.002;-1.592;2024-01-30T07:53:09;101513.91;;;1.77;78.66
82621;BME280;72291;55.002;-1.592;2024-01-30T07:55:33;101522.21;;;2.05;79.12
82621;BME280;72291;55.002;-1.592;2024-01-30T07:57:58;101523.03;;;2.88;75.57
82621;BME280;72291;55.002;-1.592;2024-01-30T08:00:28;101527.71;;;2.35;75.26
82621;BME280;72291;55.002;-1.592;2024-01-30T08:02:49;101534.43;;;2.65;75.41
82621;BME280;72291;55.002;-1.592;2024-01-30T08:05:15;101539.59;;;2.81;76.08
82621;BME280;72291;55.002;-1.592;2024-01-30T08:07:40;101542.94;;;2.73;74.56
82621;BME280;72291;55.002;-1.592;2024-01-30T08:10:06;101549.49;;;2.97;74.95
82621;BME280;72291;55.002;-1.592;2024-01-30T08:12:30;101553.02;;;2.43;75.85
82621;BME280;72291;55.002;-1.592;2024-01-30T08:14:55;101557.70;;;2.72;74.41
82621;BME280;72291;55.002;-1.592;2024-01-30T08:17:21;101559.52;;;2.72;72.92
82621;BME280;72291;55.002;-1.592;2024-01-30T08:19:45;101570.76;;;1.86;75.18
82621;BME280;72291;55.002;-1.592;2024-01-30T08:22:12;101577.98;;;1.97;75.96
82621;BME280;72291;55.002;-1.592;2024-01-30T08:24:36;101580.39;;;2.65;75.28
82621;BME280;72291;55.002;-1.592;2024-01-30T08:27:01;101589.82;;;1.91;75.78
82621;BME280;72291;55.002;-1.592;2024-01-30T08:29:27;101590.46;;;1.92;74.88
82621;BME280;72291;55.002;-1.592;2024-01-30T08:31:51;101595.50;;;2.86;73.57
82621;BME280;72291;55.002;-1.592;2024-01-30T08:34:17;101600.45;;;2.34;73.43
82621;BME280;72291;55.002;-1.592;2024-01-30T08:36:42;101608.60;;;2.71;72.29
82621;BME280;72291;55.002;-1.592;2024-01-30T08:39:07;101614.65;;;3.68;69.50
82621;BME280;72291;55.002;-1.592;2024-01-30T08:41:33;101616.82;;;3.00;72.66
82621;BME280;72291;55.002;-1.592;2024-01-30T08:43:57;101629.75;;;2.61;73.37
82621;BME280;72291;55.002;-1.592;2024-01-30T08:46:23;101635.65;;;2.07;74.98
82621;BME280;72291;55.002;-1.592;2024-01-30T08:48:48;101645.92;;;1.59;76.28
82621;BME280;72291;55.002;-1.592;2024-01-30T08:51:13;101649.76;;;2.68;74.42
82621;BME280;72291;55.002;-1.592;2024-01-30T08:53:39;101652.46;;;2.30;74.46
82621;BME280;72291;55.002;-1.592;2024-01-30T08:56:04;101661.56;;;2.07;77.06
82621;BME280;72291;55.002;-1.592;2024-01-30T08:58:28;101667.37;;;3.05;72.50
82621;BME280;72291;55.002;-1.592;2024-01-30T09:00:54;101668.36;;;2.33;73.78
82621;BME280;72291;55.002;-1.592;2024-01-30T09:03:19;101667.20;;;2.85;71.10
82621;BME280;72291;55.002;-1.592;2024-01-30T09:05:46;101674.76;;;3.15;71.14
82621;BME280;72291;55.002;-1.592;2024-01-30T09:08:10;101678.18;;;2.54;72.13
82621;BME280;72291;55.002;-1.592;2024-01-30T09:10:35;101680.30;;;2.45;73.09
82621;BME280;72291;55.002;-1.592;2024-01-30T09:13:00;101680.88;;;2.95;71.01
82621;BME280;72291;55.002;-1.592;2024-01-30T09:15:25;101679.08;;;3.46;69.64
82621;BME280;72291;55.002;-1.592;2024-01-30T09:17:51;101686.16;;;3.14;70.69
82621;BME280;72291;55.002;-1.592;2024-01-30T09:20:16;101695.83;;;2.37;72.83
82621;BME280;72291;55.002;-1.592;2024-01-30T09:22:41;101700.07;;;3.02;70.56
82621;BME280;72291;55.002;-1.592;2024-01-30T09:25:06;101701.66;;;3.19;69.18
82621;BME280;72291;55.002;-1.592;2024-01-30T09:27:31;101700.04;;;3.61;68.66
82621;BME280;72291;55.002;-1.592;2024-01-30T09:29:56;101705.81;;;3.28;68.82
82621;BME280;72291;55.002;-1.592;2024-01-30T09:32:21;101706.73;;;4.11;67.30
82621;BME280;72291;55.002;-1.592;2024-01-30T09:34:47;101706.08;;;3.66;66.44
82621;BME280;72291;55.002;-1.592;2024-01-30T09:37:12;101710.57;;;3.48;67.52
82621;BME280;72291;55.002;-1.592;2024-01-30T09:39:37;101711.29;;;3.37;67.85
82621;BME280;72291;55.002;-1.592;2024-01-30T09:42:11;101713.51;;;2.97;70.37
82621;BME280;72291;55.002;-1.592;2024-01-30T09:44:29;101713.78;;;2.96;68.90
82621;BME280;72291;55.002;-1.592;2024-01-30T09:46:53;101721.32;;;2.58;70.07
82621;BME280;72291;55.002;-1.592;2024-01-30T09:49:18;101732.62;;;2.80;68.97
82621;BME280;72291;55.002;-1.592;2024-01-30T09:51:44;101739.68;;;2.44;71.18
82621;BME280;72291;55.002;-1.592;2024-01-30T09:54:10;101741.97;;;3.00;68.82
82621;BME280;72291;55.002;-1.592;2024-01-30T09:56:34;101743.51;;;3.32;67.28
82621;BME280;72291;55.002;-1.592;2024-01-30T09:58:59;101752.78;;;2.18;70.31
82621;BME280;72291;55.002;-1.592;2024-01-30T10:01:25;101753.24;;;2.57;68.88
82621;BME280;72291;55.002;-1.592;2024-01-30T10:03:51;101758.09;;;3.02;67.85
82621;BME280;72291;55.002;-1.592;2024-01-30T10:06:16;101767.68;;;2.15;70.50
82621;BME280;72291;55.002;-1.592;2024-01-30T10:08:41;101771.40;;;1.98;70.36
82621;BME280;72291;55.002;-1.592;2024-01-30T10:11:05;101769.33;;;2.52;68.86
82621;BME280;72291;55.002;-1.592;2024-01-30T10:13:31;101767.20;;;2.89;68.00
82621;BME280;72291;55.002;-1.592;2024-01-30T10:15:56;101775.99;;;2.61;67.77
82621;BME280;72291;55.002;-1.592;2024-01-30T10:18:23;101771.45;;;3.08;66.57
82621;BME280;72291;55.002;-1.592;2024-01-30T10:20:47;101777.24;;;2.74;67.78
82621;BME280;72291;55.002;-1.592;2024-01-30T10:23:12;101775.95;;;3.40;65.05
82621;BME280;72291;55.002;-1.592;2024-01-30T10:25:37;101782.71;;;2.70;66.53
82621;BME280;72291;55.002;-1.592;2024-01-30T10:28:02;101785.89;;;2.85;65.61
82621;BME280;72291;55.002;-1.592;2024-01-30T10:30:28;101783.41;;;2.37;67.64
82621;BME280;72291;55.002;-1.592;2024-01-30T10:32:52;101785.59;;;1.18;71.58
82621;BME280;72291;55.002;-1.592;2024-01-30T10:35:17;101782.44;;;2.24;68.67
82621;BME280;72291;55.002;-1.592;2024-01-30T10:37:44;101783.83;;;2.83;66.50
82621;BME280;72291;55.002;-1.592;2024-01-30T10:40:11;101791.40;;;3.15;65.57
82621;BME280;72291;55.002;-1.592;2024-01-30T10:42:42;101794.53;;;2.99;65.29
82621;BME280;72291;55.002;-1.592;2024-01-30T10:45:02;101792.72;;;3.01;66.66
82621;BME280;72291;55.002;-1.592;2024-01-30T10:47:27;101798.92;;;3.42;64.31
82621;BME280;72291;55.002;-1.592;2024-01-30T10:49:49;101803.97;;;3.81;65.01
82621;BME280;72291;55.002;-1.592;2024-01-30T10:52:14;101806.15;;;3.60;64.37
82621;BME280;72291;55.002;-1.592;2024-01-30T10:54:44;101805.72;;;4.59;61.34
82621;BME280;72291;55.002;-1.592;2024-01-30T10:57:05;101810.92;;;5.19;58.99
82621;BME280;72291;55.002;-1.592;2024-01-30T10:59:30;101813.57;;;4.11;60.62
82621;BME280;72291;55.002;-1.592;2024-01-30T11:01:55;101813.66;;;4.92;60.34
82621;BME280;72291;55.002;-1.592;2024-01-30T11:04:20;101814.16;;;4.63;58.98
82621;BME280;72291;55.002;-1.592;2024-01-30T11:06:49;101817.44;;;5.10;57.76
82621;BME280;72291;55.002;-1.592;2024-01-30T11:09:11;101817.14;;;5.31;56.92
82621;BME280;72291;55.002;-1.592;2024-01-30T11:11:49;101810.85;;;7.20;54.07
82621;BME280;72291;55.002;-1.592;2024-01-30T11:14:01;101811.61;;;6.96;53.85
82621;BME280;72291;55.002;-1.592;2024-01-30T11:16:31;101815.85;;;7.02;52.89
82621;BME280;72291;55.002;-1.592;2024-01-30T11:18:51;101808.23;;;8.76;50.54
82621;BME280;72291;55.002;-1.592;2024-01-30T11:21:16;101803.25;;;9.58;48.73
82621;BME280;72291;55.002;-1.592;2024-01-30T11:23:42;101806.81;;;9.71;46.22
82621;BME280;72291;55.002;-1.592;2024-01-30T11:26:06;101812.67;;;9.52;48.08
82621;BME280;72291;55.002;-1.592;2024-01-30T11:28:33;101812.95;;;9.93;46.24
82621;BME280;72291;55.002;-1.592;2024-01-30T11:31:03;101820.37;;;10.48;45.88
82621;BME280;72291;55.002;-1.592;2024-01-30T11:33:29;101819.25;;;11.17;43.67
82621;BME280;72291;55.002;-1.592;2024-01-30T11:35:46;101825.27;;;10.47;44.45
82621;BME280;72291;55.002;-1.592;2024-01-30T11:38:14;101826.82;;;11.12;42.83
82621;BME280;72291;55.002;-1.592;2024-01-30T11:40:38;101830.17;;;10.16;44.69
82621;BME280;72291;55.002;-1.592;2024-01-30T11:43:04;101830.19;;;9.70;45.13
82621;BME280;72291;55.002;-1.592;2024-01-30T11:45:31;101831.56;;;11.07;42.20
82621;BME280;72291;55.002;-1.592;2024-01-30T11:47:52;101833.78;;;10.17;44.01
82621;BME280;72291;55.002;-1.592;2024-01-30T11:50:31;101830.21;;;12.34;42.20
82621;BME280;72291;55.002;-1.592;2024-01-30T11:52:43;101840.05;;;9.40;44.40
82621;BME280;72291;55.002;-1.592;2024-01-30T11:55:09;101843.54;;;10.82;43.30
82621;BME280;72291;55.002;-1.592;2024-01-30T11:59:57;101854.16;;;7.52;49.03
82621;BME280;72291;55.002;-1.592;2024-01-30T12:04:48;101863.34;;;6.82;51.53
82621;BME280;72291;55.002;-1.592;2024-01-30T12:07:18;101871.19;;;5.91;52.43
82621;BME280;72291;55.002;-1.592;2024-01-30T12:12:04;101877.07;;;4.76;56.49
82621;BME280;72291;55.002;-1.592;2024-01-30T12:16:53;101886.50;;;4.63;57.17
82621;BME280;72291;55.002;-1.592;2024-01-30T12:21:44;101885.83;;;5.23;57.01
82621;BME280;72291;55.002;-1.592;2024-01-30T12:24:10;101885.83;;;5.75;54.45
82621;BME280;72291;55.002;-1.592;2024-01-30T12:26:34;101886.91;;;5.22;54.97
82621;BME280;72291;55.002;-1.592;2024-01-30T12:28:59;101885.43;;;5.21;55.55
82621;BME280;72291;55.002;-1.592;2024-01-30T12:31:26;101878.21;;;5.25;56.13
82621;BME280;72291;55.002;-1.592;2024-01-30T12:33:49;101879.75;;;5.87;52.07
82621;BME280;72291;55.002;-1.592;2024-01-30T12:36:17;101883.39;;;5.12;52.98
82621;BME280;72291;55.002;-1.592;2024-01-30T12:38:41;101883.80;;;4.97;53.84
82621;BME280;72291;55.002;-1.592;2024-01-30T12:41:07;101888.91;;;5.50;53.62
82621;BME280;72291;55.002;-1.592;2024-01-30T12:43:32;101889.23;;;5.23;53.63
82621;BME280;72291;55.002;-1.592;2024-01-30T12:45:56;101892.16;;;5.96;53.26
82621;BME280;72291;55.002;-1.592;2024-01-30T12:48:26;101891.57;;;5.17;54.54
82621;BME280;72291;55.002;-1.592;2024-01-30T12:50:46;101886.54;;;5.16;54.57
82621;BME280;72291;55.002;-1.592;2024-01-30T12:53:11;101887.33;;;5.59;52.00
82621;BME280;72291;55.002;-1.592;2024-01-30T12:55:37;101894.23;;;4.40;56.48
82621;BME280;72291;55.002;-1.592;2024-01-30T12:58:01;101894.14;;;5.07;54.46
82621;BME280;72291;55.002;-1.592;2024-01-30T13:00:27;101897.46;;;4.43;54.64
82621;BME280;72291;55.002;-1.592;2024-01-30T13:02:52;101896.02;;;5.81;51.84
82621;BME280;72291;55.002;-1.592;2024-01-30T13:05:17;101892.45;;;5.76;52.14
82621;BME280;72291;55.002;-1.592;2024-01-30T13:07:42;101892.57;;;5.75;52.70
82621;BME280;72291;55.002;-1.592;2024-01-30T13:10:07;101901.51;;;5.26;53.81
82621;BME280;72291;55.002;-1.592;2024-01-30T13:12:33;101906.73;;;4.77;54.13
82621;BME280;72291;55.002;-1.592;2024-01-30T13:14:57;101913.89;;;5.14;53.62
82621;BME280;72291;55.002;-1.592;2024-01-30T13:17:23;101908.25;;;4.88;53.98
82621;BME280;72291;55.002;-1.592;2024-01-30T13:19:48;101913.01;;;3.93;56.19
82621;BME280;72291;55.002;-1.592;2024-01-30T13:22:13;101907.51;;;4.64;56.56
82621;BME280;72291;55.002;-1.592;2024-01-30T13:24:38;101902.73;;;6.46;50.71
82621;BME280;72291;55.002;-1.592;2024-01-30T13:27:04;101899.27;;;6.42;52.50
82621;BME280;72291;55.002;-1.592;2024-01-30T13:29:29;101899.55;;;5.84;52.90
82621;BME280;72291;55.002;-1.592;2024-01-30T13:31:55;101901.21;;;6.55;50.73
82621;BME280;72291;55.002;-1.592;2024-01-30T13:34:19;101899.82;;;5.90;51.40
82621;BME280;72291;55.002;-1.592;2024-01-30T13:36:44;101898.19;;;5.52;52.48
82621;BME280;72291;55.002;-1.592;2024-01-30T13:39:09;101905.92;;;4.90;53.91
82621;BME280;72291;55.002;-1.592;2024-01-30T13:41:34;101904.78;;;5.92;52.22
82621;BME280;72291;55.002;-1.592;2024-01-30T13:44:01;101910.67;;;6.30;52.35
82621;BME280;72291;55.002;-1.592;2024-01-30T13:46:30;101911.55;;;5.65;52.85
82621;BME280;72291;55.002;-1.592;2024-01-30T13:48:50;101928.51;;;5.46;53.75
82621;BME280;72291;55.002;-1.592;2024-01-30T13:51:15;101929.71;;;5.38;53.63
82621;BME280;72291;55.002;-1.592;2024-01-30T13:53:40;101933.72;;;5.44;54.36